Time;durP1;ratioP1;P1;durP2;ratioP2;P2;SDS_P1;SDS_P2;PMS_P1;PMS_P2;Temp;Humidity;BMP_temperature;BMP_pressure;BME280_temperature;BME280_humidity;BME280_pressure;Samples;Min_cycle;Max_cycle;Signal;HPM_P1;HPM_P2
2022/11/03 00:01:34;;;;;;;12.70;1.88;;;;;;;20.57;nan;99440.13;4916257;29;20107;-93
2022/11/03 00:04:00;;;;;;;15.40;2.30;;;;;;;20.57;nan;99434.78;4914924;29;20550;-92
2022/11/03 00:06:25;;;;;;;25.00;2.78;;;;;;;20.20;nan;99447.38;4914224;29;20031;-92
2022/11/03 00:08:51;;;;;;;14.98;2.08;;;;;;;20.85;nan;99439.34;4916071;29;20055;-94
2022/11/03 00:11:17;;;;;;;16.90;2.42;;;;;;;21.05;nan;99443.00;4914798;29;20091;-93
2022/11/03 00:13:43;;;;;;;11.52;2.10;;;;;;;20.85;nan;99442.81;4914852;29;20029;-92
2022/11/03 00:16:10;;;;;;;20.58;2.72;;;;;;;20.05;nan;99436.78;4914698;29;20495;-93
2022/11/03 00:18:37;;;;;;;13.70;2.58;;;;;;;20.91;nan;99417.22;4915067;29;20114;-93
2022/11/03 00:21:05;;;;;;;17.08;2.25;;;;;;;20.16;nan;99414.13;4914194;29;20036;-93
2022/11/03 00:23:33;;;;;;;16.83;2.05;;;;;;;19.66;nan;99422.00;4914913;29;20028;-94
2022/11/03 00:26:20;;;;;;;15.63;2.85;;;;;;;18.97;nan;99425.81;4896891;29;20028;-93
2022/11/03 00:28:50;;;;;;;17.63;2.53;;;;;;;19.83;nan;99424.44;4896986;29;20112;-93
2022/11/03 00:31:28;;;;;;;13.88;2.65;;;;;;;20.03;nan;99424.69;4911739;29;20475;-93
2022/11/03 00:33:54;;;;;;;14.43;2.92;;;;;;;20.23;nan;99419.53;4895624;29;20107;-93
2022/11/03 00:36:26;;;;;;;13.80;2.65;;;;;;;20.17;nan;99421.94;4911509;29;20502;-93
2022/11/03 00:38:51;;;;;;;21.13;3.25;;;;;;;20.05;nan;99414.66;4916913;29;20028;-93
2022/11/03 00:41:19;;;;;;;12.80;1.85;;;;;;;20.22;nan;99418.69;4919558;29;20036;-93
2022/11/03 00:43:46;;;;;;;10.73;1.80;;;;;;;20.33;nan;99422.72;4918455;29;20028;-93
2022/11/03 00:46:12;;;;;;;15.48;2.53;;;;;;;20.29;nan;99413.44;4918243;29;20136;-93
2022/11/03 00:48:37;;;;;;;8.65;2.05;;;;;;;20.28;nan;99412.63;4918364;29;20109;-93
2022/11/03 00:51:13;;;;;;;21.23;2.67;;;;;;;20.27;nan;99423.47;4918188;29;20036;-92
2022/11/03 00:53:41;;;;;;;10.30;2.13;;;;;;;20.75;nan;99413.84;4917225;29;20119;-92
2022/11/03 00:56:10;;;;;;;13.52;2.35;;;;;;;20.73;nan;99415.03;4919224;29;20049;-92
2022/11/03 00:58:36;;;;;;;11.75;3.00;;;;;;;20.84;nan;99419.84;4919311;29;20038;-92
2022/11/03 01:01:07;;;;;;;13.95;2.75;;;;;;;20.49;nan;99419.75;4918031;29;20028;-93
2022/11/03 01:03:35;;;;;;;19.90;3.40;;;;;;;20.18;nan;99410.28;4917880;29;20032;-93
2022/11/03 01:08:48;;;;;;;14.57;2.35;;;;;;;20.43;nan;99393.06;4917657;29;20552;-93
2022/11/03 01:14:04;;;;;;;19.00;2.47;;;;;;;20.29;nan;99397.44;4919475;29;20031;-95
2022/11/03 01:16:30;;;;;;;14.70;2.45;;;;;;;20.13;nan;99394.03;4917846;29;20028;-93
2022/11/03 01:18:56;;;;;;;20.02;3.17;;;;;;;20.00;nan;99385.91;4919021;29;20028;-93
2022/11/03 01:21:22;;;;;;;20.95;3.75;;;;;;;20.04;nan;99378.34;4918208;29;20031;-93
2022/11/03 01:23:48;;;;;;;19.73;3.50;;;;;;;19.22;nan;99391.78;4918019;29;20028;-94
2022/11/03 01:26:14;;;;;;;23.77;4.00;;;;;;;19.90;nan;99385.41;4916980;29;20052;-95
2022/11/03 01:28:42;;;;;;;21.67;3.13;;;;;;;20.14;nan;99377.03;4917367;29;20107;-94
2022/11/03 01:31:13;;;;;;;19.80;3.08;;;;;;;20.00;nan;99359.25;4898934;29;20485;-93
2022/11/03 01:33:39;;;;;;;21.53;3.10;;;;;;;19.50;nan;99366.31;4899114;29;20460;-94
2022/11/03 01:36:04;;;;;;;15.85;3.25;;;;;;;20.13;nan;99343.41;4900256;29;20101;-94
2022/11/03 01:38:34;;;;;;;16.23;2.60;;;;;;;20.19;nan;99344.47;4914700;29;20032;-95
2022/11/03 01:41:02;;;;;;;29.55;3.88;;;;;;;19.62;nan;99343.50;4898974;29;20064;-94
2022/11/03 01:43:30;;;;;;;24.73;3.25;;;;;;;20.01;nan;99350.28;4898750;29;20052;-94
2022/11/03 01:46:08;;;;;;;27.95;3.72;;;;;;;19.72;nan;99349.38;4898592;29;20492;-94
2022/11/03 01:48:35;;;;;;;14.23;2.53;;;;;;;20.05;nan;99348.06;4914332;29;20060;-96
2022/11/03 01:51:04;;;;;;;18.08;3.40;;;;;;;19.88;nan;99332.31;4914015;29;20466;-94
2022/11/03 01:53:30;;;;;;;20.10;3.22;;;;;;;19.33;nan;99339.94;4914590;29;20030;-94
2022/11/03 01:55:57;;;;;;;12.25;2.95;;;;;;;19.84;nan;99331.03;4914110;29;20126;-94
2022/11/03 01:58:31;;;;;;;25.52;3.33;;;;;;;19.71;nan;99318.44;4915493;29;20031;-94
2022/11/03 02:00:58;;;;;;;17.73;2.75;;;;;;;19.76;nan;99308.03;4917435;29;20028;-95
2022/11/03 02:03:26;;;;;;;13.77;2.13;;;;;;;19.65;nan;99303.19;4917129;29;20111;-93
2022/11/03 02:05:53;;;;;;;13.52;2.15;;;;;;;19.78;nan;99283.88;4917300;29;20136;-93
2022/11/03 02:08:29;;;;;;;18.83;3.13;;;;;;;19.81;nan;99279.00;4917153;29;20583;-94
2022/11/03 02:10:56;;;;;;;11.65;2.08;;;;;;;19.98;nan;99255.56;4917138;29;20028;-94
2022/11/03 02:13:24;;;;;;;10.57;1.83;;;;;;;19.77;nan;99260.94;4916359;29;20020;-94
2022/11/03 02:15:54;;;;;;;18.27;2.83;;;;;;;19.67;nan;99255.91;4916345;29;20042;-94
2022/11/03 02:18:23;;;;;;;13.50;1.85;;;;;;;19.52;nan;99265.78;4916717;29;20032;-94
2022/11/03 02:21:07;;;;;;;10.93;2.20;;;;;;;19.64;nan;99266.09;4916888;29;20039;-94
2022/11/03 02:23:42;;;;;;;18.33;2.58;;;;;;;19.71;nan;99267.00;4916612;29;20113;-94
2022/11/03 02:26:09;;;;;;;6.97;1.52;;;;;;;19.70;nan;99262.66;4917020;29;20203;-94
2022/11/03 02:28:35;;;;;;;14.15;2.10;;;;;;;19.73;nan;99257.81;4916103;29;20028;-94
2022/11/03 02:31:13;;;;;;;10.25;2.05;;;;;;;19.56;nan;99253.72;4916787;29;20575;-93
2022/11/03 02:33:56;;;;;;;13.70;2.00;;;;;;;19.44;nan;99255.25;4916569;29;20028;-94
2022/11/03 02:36:33;;;;;;;9.57;2.05;;;;;;;19.53;nan;99248.78;4916506;29;20035;-94
2022/11/03 02:39:26;;;;;;;9.05;1.63;;;;;;;19.67;nan;99258.56;4916738;29;20032;-94
2022/11/03 02:41:55;;;;;;;16.83;2.28;;;;;;;19.18;nan;99243.34;4916460;29;20027;-93
2022/11/03 02:44:21;;;;;;;14.85;1.42;;;;;;;19.14;nan;99234.09;4915668;29;20562;-93
2022/11/03 02:46:57;;;;;;;14.02;2.45;;;;;;;19.02;nan;99220.44;4915614;29;20055;-94
2022/11/03 02:49:23;;;;;;;12.40;2.30;;;;;;;19.44;nan;99229.47;4916049;29;20020;-94
2022/11/03 02:51:58;;;;;;;9.43;1.85;;;;;;;19.05;nan;99219.25;4917519;29;20035;-94
2022/11/03 02:54:38;;;;;;;8.43;1.38;;;;;;;19.46;nan;99226.63;4917323;29;20020;-93
2022/11/03 02:57:12;;;;;;;8.68;1.77;;;;;;;19.40;nan;99223.69;4916038;29;20471;-93
2022/11/03 02:59:49;;;;;;;10.07;1.67;;;;;;;19.25;nan;99209.59;4916737;29;20036;-94
2022/11/03 03:02:20;;;;;;;10.90;1.77;;;;;;;18.96;nan;99206.06;4915285;29;20059;-94
2022/11/03 03:04:52;;;;;;;6.28;1.45;;;;;;;19.12;nan;99198.84;4916387;29;20020;-93
2022/11/03 03:07:45;;;;;;;5.95;1.85;;;;;;;19.37;nan;99207.28;4917173;29;20059;-94
2022/11/03 03:10:23;;;;;;;10.82;2.05;;;;;;;19.47;nan;99220.25;4916021;29;20497;-94
2022/11/03 03:12:55;;;;;;;10.05;2.95;;;;;;;19.55;nan;99214.81;4916139;29;20050;-93
2022/11/03 03:15:31;;;;;;;16.38;2.35;;;;;;;19.16;nan;99206.25;4915121;29;20040;-93
2022/11/03 03:18:30;;;;;;;9.00;2.35;;;;;;;19.54;nan;99206.00;4916064;29;20049;-94
2022/11/03 03:21:04;;;;;;;8.70;2.00;;;;;;;19.58;nan;99198.47;4902575;29;20040;-94
2022/11/03 03:23:36;;;;;;;12.55;2.30;;;;;;;19.65;nan;99202.00;4915950;29;20052;-94
2022/11/03 03:26:14;;;;;;;15.77;2.00;;;;;;;17.49;nan;99202.31;4915889;29;20455;-94
2022/11/03 03:28:50;;;;;;;14.75;2.53;;;;;;;17.32;nan;99191.84;4915137;29;20032;-94
2022/11/03 03:31:19;;;;;;;17.10;2.13;;;;;;;17.28;nan;99201.16;4915983;29;20121;-94
2022/11/03 03:33:47;;;;;;;15.55;2.60;;;;;;;17.11;nan;99192.47;4915996;29;20046;-94
2022/11/03 03:36:17;;;;;;;24.27;3.42;;;;;;;16.59;nan;99191.25;4915849;29;20398;-96
2022/11/03 03:38:49;;;;;;;16.73;2.90;;;;;;;16.77;nan;99179.56;4915918;29;20020;-95
2022/11/03 03:41:20;;;;;;;17.63;3.55;;;;;;;17.94;nan;99180.19;4916219;29;20116;-95
2022/11/03 03:43:50;;;;;;;19.00;3.25;;;;;;;18.60;nan;99188.22;4914953;29;20079;-94
2022/11/03 03:46:17;;;;;;;8.38;2.08;;;;;;;18.60;nan;99179.41;4929342;29;20032;-94
2022/11/03 03:48:43;;;;;;;24.05;2.70;;;;;;;18.68;nan;99160.72;4930927;29;20652;-94
2022/11/03 03:51:10;;;;;;;16.02;3.97;;;;;;;19.09;nan;99162.78;4931270;29;20036;-93
2022/11/03 03:53:36;;;;;;;18.67;2.22;;;;;;;18.94;nan;99157.53;4930240;29;20550;-93
2022/11/03 03:56:04;;;;;;;21.25;3.47;;;;;;;18.74;nan;99143.16;4915572;29;20115;-93
2022/11/03 03:58:30;;;;;;;12.48;2.33;;;;;;;18.99;nan;99141.81;4931452;29;20174;-95
2022/11/03 04:00:55;;;;;;;12.98;2.20;;;;;;;19.00;nan;99132.03;4931550;29;20111;-93
2022/11/03 04:03:23;;;;;;;18.05;3.00;;;;;;;19.06;nan;99133.94;4931185;29;20056;-94
2022/11/03 04:05:49;;;;;;;13.55;2.28;;;;;;;18.45;nan;99131.59;4915676;29;20028;-95
2022/11/03 04:08:16;;;;;;;12.60;2.30;;;;;;;18.67;nan;99148.41;4914654;29;20482;-95
2022/11/03 04:22:15;;;;;;;15.23;2.75;;;;;;;18.33;nan;99147.22;4915473;29;20134;-95
2022/11/03 04:24:27;;;;;;;17.70;3.42;;;;;;;18.35;nan;99139.06;4916477;29;20046;-95
2022/11/03 04:26:56;;;;;;;8.82;1.85;;;;;;;18.80;nan;99139.81;4915255;29;20111;-93
2022/11/03 04:29:22;;;;;;;9.82;1.90;;;;;;;18.71;nan;99135.59;4915465;29;20035;-94
2022/11/03 04:31:47;;;;;;;7.10;1.30;;;;;;;18.85;nan;99134.72;4915305;29;20028;-93
2022/11/03 04:34:13;;;;;;;15.30;2.35;;;;;;;18.75;nan;99128.88;4915245;29;20035;-95
2022/11/03 04:36:38;;;;;;;10.32;1.75;;;;;;;18.86;nan;99125.75;4913951;29;20035;-94
2022/11/03 04:39:17;;;;;;;11.20;2.35;;;;;;;19.17;nan;99132.56;4915154;29;20032;-95
2022/11/03 04:41:43;;;;;;;8.85;1.50;;;;;;;18.78;nan;99110.72;4916031;29;20036;-93
2022/11/03 04:44:16;;;;;;;13.25;1.80;;;;;;;18.92;nan;99119.69;4915161;29;20028;-95
2022/11/03 04:46:44;;;;;;;8.55;1.30;;;;;;;18.75;nan;99110.25;4914545;29;20172;-95
2022/11/03 04:49:13;;;;;;;12.00;1.67;;;;;;;18.98;nan;99118.09;4913537;29;20031;-95
2022/11/03 04:51:40;;;;;;;7.43;1.70;;;;;;;18.88;nan;99091.81;4914981;29;20032;-94
2022/11/03 04:54:14;;;;;;;7.60;1.52;;;;;;;18.90;nan;99083.63;4914894;29;20272;-94
2022/11/03 04:56:40;;;;;;;14.43;2.25;;;;;;;18.77;nan;99089.63;4915993;29;20126;-94
2022/11/03 04:59:14;;;;;;;16.58;3.72;;;;;;;18.45;nan;99081.13;4913453;29;20060;-95
2022/11/03 05:01:42;;;;;;;15.73;2.22;;;;;;;18.13;nan;99074.41;4911165;29;20533;-94
2022/11/03 05:04:13;;;;;;;14.80;2.08;;;;;;;18.43;nan;99062.69;4898285;29;20035;-94
2022/11/03 05:06:40;;;;;;;11.05;1.80;;;;;;;18.59;nan;99061.63;4911400;29;20063;-94
2022/11/03 05:09:18;;;;;;;16.98;2.47;;;;;;;18.63;nan;99078.84;4905823;29;20115;-93
2022/11/03 05:11:46;;;;;;;8.80;1.40;;;;;;;18.68;nan;99069.47;4915806;29;20024;-94
2022/11/03 05:14:18;;;;;;;7.03;1.67;;;;;;;18.59;nan;99076.75;4914311;29;20033;-93
2022/11/03 05:16:43;;;;;;;7.00;1.58;;;;;;;18.60;nan;99060.63;4911229;29;20414;-93
2022/11/03 05:19:32;;;;;;;6.57;1.40;;;;;;;18.68;nan;99066.81;4929410;29;20036;-93
2022/11/03 05:21:59;;;;;;;11.45;1.80;;;;;;;18.73;nan;99070.56;4914469;29;20036;-94
2022/11/03 05:24:26;;;;;;;5.78;2.20;;;;;;;18.68;nan;99061.50;4914497;29;20024;-94
2022/11/03 05:26:54;;;;;;;9.02;2.03;;;;;;;18.49;nan;99066.44;4917938;29;20028;-92
2022/11/03 05:29:35;;;;;;;12.82;2.13;;;;;;;18.57;nan;99068.16;4917652;29;20493;-94
2022/11/03 05:32:01;;;;;;;11.30;2.58;;;;;;;18.54;nan;99064.06;4918178;29;20060;-94
2022/11/03 05:34:48;;;;;;;7.93;1.80;;;;;;;18.91;nan;99067.47;4917475;29;20063;-94
2022/11/03 05:37:34;;;;;;;8.48;1.88;;;;;;;18.65;nan;99049.41;4917551;29;20032;-93
2022/11/03 05:40:13;;;;;;;4.97;0.88;;;;;;;18.66;nan;99053.75;4917683;29;20076;-93
2022/11/03 05:42:41;;;;;;;8.80;1.88;;;;;;;18.69;nan;99056.00;4917381;29;20025;-93
2022/11/03 05:45:28;;;;;;;7.03;2.00;;;;;;;18.66;nan;99052.91;4917377;29;20027;-93
2022/11/03 05:47:55;;;;;;;7.93;1.38;;;;;;;18.55;nan;99044.41;4916093;29;20487;-93
2022/11/03 05:50:24;;;;;;;7.00;1.42;;;;;;;18.60;nan;99042.03;4917050;29;20082;-92
2022/11/03 05:52:56;;;;;;;7.07;2.00;;;;;;;18.64;nan;99047.75;4917367;29;20486;-94
2022/11/03 05:55:33;;;;;;;8.40;1.67;;;;;;;18.38;nan;99043.00;4917314;29;20032;-93
2022/11/03 05:58:03;;;;;;;11.45;1.80;;;;;;;18.28;nan;99023.88;4917105;29;20125;-93
2022/11/03 06:00:32;;;;;;;6.75;1.40;;;;;;;18.31;nan;99005.75;4917214;29;20368;-94
2022/11/03 06:02:59;;;;;;;9.60;1.65;;;;;;;18.34;nan;99002.69;4916158;29;20032;-93
2022/11/03 06:05:25;;;;;;;10.13;1.40;;;;;;;18.44;nan;98999.72;4917447;29;20041;-93
2022/11/03 06:07:56;;;;;;;10.82;1.95;;;;;;;18.35;nan;98983.09;4918348;29;20035;-93
2022/11/03 06:10:30;;;;;;;7.78;1.70;;;;;;;18.38;nan;98989.84;4917974;29;20035;-93
2022/11/03 06:13:00;;;;;;;7.68;1.48;;;;;;;18.43;nan;98982.16;4918350;29;20145;-93
2022/11/03 06:15:35;;;;;;;7.72;1.80;;;;;;;18.33;nan;98976.34;4917028;29;20028;-93
2022/11/03 06:18:14;;;;;;;3.47;0.88;;;;;;;18.67;nan;98966.81;4914859;29;20032;-94
2022/11/03 06:20:40;;;;;;;9.10;2.35;;;;;;;18.73;nan;98966.06;4930534;29;20077;-93
2022/11/03 06:23:11;;;;;;;5.03;0.90;;;;;;;18.53;nan;98965.88;4917508;29;20079;-91
2022/11/03 06:25:37;;;;;;;7.28;1.55;;;;;;;18.60;nan;98978.22;4916217;29;20111;-93
2022/11/03 06:28:05;;;;;;;6.70;1.70;;;;;;;18.54;nan;98981.66;4917833;29;20442;-94
2022/11/03 06:30:37;;;;;;;10.82;1.48;;;;;;;18.62;nan;98980.66;4917870;29;20024;-93
2022/11/03 06:33:20;;;;;;;8.13;1.45;;;;;;;18.63;nan;98977.81;4916540;29;20020;-93
2022/11/03 06:35:49;;;;;;;11.18;1.42;;;;;;;18.74;nan;98970.34;4916679;29;20051;-94
2022/11/03 06:38:20;;;;;;;7.88;2.38;;;;;;;18.70;nan;98977.91;4916120;29;20042;-94
2022/11/03 06:40:49;;;;;;;6.47;1.48;;;;;;;18.70;nan;98974.41;4915380;29;20032;-92
2022/11/03 06:43:24;;;;;;;6.30;1.05;;;;;;;18.75;nan;98974.66;4916200;29;20040;-93
2022/11/03 06:46:04;;;;;;;3.85;0.63;;;;;;;18.65;nan;98984.81;4917135;29;20478;-92
2022/11/03 06:48:39;;;;;;;3.88;0.80;;;;;;;18.72;nan;98972.38;4917649;29;20502;-96
2022/11/03 06:51:26;;;;;;;5.88;1.13;;;;;;;18.29;nan;98975.06;4956513;23;20040;-96
2022/11/03 06:53:54;;;;;;;4.40;1.10;;;;;;;18.14;nan;98975.91;4920284;29;20060;-96
2022/11/03 06:56:21;;;;;;;6.05;1.23;;;;;;;18.46;nan;98989.72;4886050;29;20028;-95
2022/11/03 06:58:48;;;;;;;5.35;0.85;;;;;;;18.49;nan;98993.84;4899638;29;20461;-95
2022/11/03 07:01:18;;;;;;;5.60;0.90;;;;;;;18.66;nan;99000.56;4900464;29;20490;-95
2022/11/03 07:03:44;;;;;;;9.02;1.40;;;;;;;18.57;nan;98997.19;4900556;29;20039;-94
2022/11/03 07:06:10;;;;;;;4.43;1.13;;;;;;;18.72;nan;99006.94;4901126;29;20483;-94
2022/11/03 07:08:42;;;;;;;5.95;1.45;;;;;;;18.73;nan;99000.63;4903491;29;20024;-95
2022/11/03 07:11:18;;;;;;;7.68;1.42;;;;;;;18.81;nan;99006.63;4920299;29;20024;-96
2022/11/03 07:18:54;;;;;;;5.65;1.13;;;;;;;18.55;nan;98987.78;5598562;23;20052;-95
2022/11/03 07:21:26;;;;;;;5.65;1.02;;;;;;;18.72;nan;98997.16;4917429;29;20024;-95
2022/11/03 07:23:54;;;;;;;4.97;1.23;;;;;;;18.72;nan;99006.94;4918911;29;20035;-96
2022/11/03 07:26:23;;;;;;;6.68;0.82;;;;;;;18.66;nan;98986.44;4901024;29;20487;-96
2022/11/03 07:28:49;;;;;;;10.00;2.13;;;;;;;18.59;nan;98986.38;4899511;29;20032;-95
2022/11/03 07:31:21;;;;;;;5.45;2.22;;;;;;;18.67;nan;98998.72;4900417;29;20032;-95
2022/11/03 07:34:56;;;;;;;;;;;;;;;;;;;;;
2022/11/03 07:38:03;;;;;;;;;;;;;;;;;;;;;
2022/11/03 07:40:39;;;;;;;5.40;1.58;;;;;;;18.71;nan;99015.94;4882428;29;20041;-96
2022/11/03 07:46:24;;;;;;;7.50;1.92;;;;;;;18.45;nan;98995.25;4898688;29;20044;-95
2022/11/03 07:48:56;;;;;;;8.13;1.88;;;;;;;18.63;nan;98999.09;4914890;29;20072;-96
2022/11/03 07:51:32;;;;;;;8.10;1.52;;;;;;;18.74;nan;99012.88;4897915;29;20059;-95
2022/11/03 07:54:32;;;;;;;10.50;2.22;;;;;;;18.78;nan;99022.16;4921740;29;20040;-95
2022/11/03 07:57:34;;;;;;;10.43;1.38;;;;;;;18.61;nan;99008.28;4914165;29;20063;-94
2022/11/03 08:00:10;;;;;;;6.85;2.15;;;;;;;18.68;nan;99018.97;4879226;29;20075;-94
2022/11/03 08:02:53;;;;;;;9.25;1.73;;;;;;;18.68;nan;99026.94;4879930;29;20108;-95
2022/11/03 08:05:18;;;;;;;7.72;1.40;;;;;;;18.57;nan;99018.47;4880492;29;20028;-95
2022/11/03 08:07:47;;;;;;;6.28;1.50;;;;;;;18.81;nan;99035.06;4897630;29;20164;-96
2022/11/03 08:10:12;;;;;;;10.02;1.35;;;;;;;18.63;nan;99017.69;4898937;29;20036;-95
2022/11/03 08:12:38;;;;;;;9.02;2.78;;;;;;;18.08;nan;99040.41;4893771;29;20029;-95
2022/11/03 08:15:04;;;;;;;9.63;1.40;;;;;;;17.66;nan;99019.84;4899261;29;20033;-95
2022/11/03 08:17:29;;;;;;;7.47;1.48;;;;;;;17.99;nan;99028.25;4912919;29;20080;-94
2022/11/03 08:19:56;;;;;;;6.85;0.80;;;;;;;18.20;nan;99022.97;4885958;29;20429;-94
2022/11/03 08:22:24;;;;;;;6.22;1.10;;;;;;;17.93;nan;99032.50;4896016;29;20165;-94
2022/11/03 08:24:50;;;;;;;5.00;1.02;;;;;;;18.37;nan;99036.06;4895727;29;20064;-94
2022/11/03 08:27:16;;;;;;;6.22;1.23;;;;;;;18.22;nan;99026.28;4894146;29;20716;-93
2022/11/03 08:29:41;;;;;;;4.35;0.88;;;;;;;18.32;nan;99022.50;4879200;29;20032;-93
2022/11/03 08:32:16;;;;;;;7.75;0.77;;;;;;;18.54;nan;99018.03;4891913;29;20058;-96
2022/11/03 08:34:41;;;;;;;8.02;1.98;;;;;;;18.31;nan;99016.38;4899299;29;20479;-93
2022/11/03 08:37:06;;;;;;;8.52;1.70;;;;;;;18.36;nan;99019.28;4898836;29;20024;-94
2022/11/03 08:39:34;;;;;;;5.90;1.30;;;;;;;18.30;nan;99014.72;4917088;29;20032;-95
2022/11/03 08:42:00;;;;;;;4.50;0.98;;;;;;;18.35;nan;99016.81;4885641;29;20056;-94
2022/11/03 08:44:26;;;;;;;7.00;1.13;;;;;;;18.27;nan;99011.63;4916535;29;20064;-96
2022/11/03 08:46:51;;;;;;;4.18;0.98;;;;;;;18.62;nan;99013.41;4899552;29;20119;-96
2022/11/03 08:49:17;;;;;;;9.20;1.30;;;;;;;18.60;nan;98999.50;4931363;29;20020;-96
2022/11/03 08:51:43;;;;;;;8.32;1.58;;;;;;;18.50;nan;98998.97;4901295;29;20044;-94
2022/11/03 08:54:11;;;;;;;10.27;1.20;;;;;;;18.13;nan;99000.03;4897375;29;20028;-96
2022/11/03 08:56:37;;;;;;;5.43;0.80;;;;;;;18.37;nan;99009.50;4902951;29;20036;-95
2022/11/03 08:59:02;;;;;;;5.07;0.77;;;;;;;18.31;nan;98989.81;4910376;29;20426;-96
2022/11/03 09:01:28;;;;;;;1.98;0.47;;;;;;;18.45;nan;98981.97;4901508;29;20386;-95
2022/11/03 09:03:53;;;;;;;6.20;1.50;;;;;;;18.78;nan;98995.56;4902699;29;20043;-95
2022/11/03 09:06:19;;;;;;;5.78;0.90;;;;;;;18.87;nan;98981.13;4906433;29;20029;-95
2022/11/03 09:08:50;;;;;;;5.30;0.85;;;;;;;18.65;nan;98998.91;4919230;29;20043;-95
2022/11/03 09:11:16;;;;;;;4.47;0.90;;;;;;;18.53;nan;98995.94;4903415;29;20031;-94
2022/11/03 09:13:41;;;;;;;5.25;1.20;;;;;;;18.48;nan;98990.34;4901291;29;20020;-94
2022/11/03 09:16:07;;;;;;;8.40;1.02;;;;;;;18.67;nan;98996.88;4887503;29;20084;-93
2022/11/03 09:18:33;;;;;;;5.55;1.27;;;;;;;18.87;nan;98983.78;4899572;29;20560;-92
2022/11/03 09:20:58;;;;;;;5.15;1.00;;;;;;;19.15;nan;98982.97;4900304;29;20052;-93
2022/11/03 09:23:23;;;;;;;6.30;1.17;;;;;;;19.26;nan;98977.09;4903035;29;20038;-92
2022/11/03 09:25:49;;;;;;;4.60;0.88;;;;;;;19.19;nan;98962.91;4900007;29;20037;-94
2022/11/03 09:28:14;;;;;;;7.07;1.25;;;;;;;19.50;nan;98970.47;4884255;29;20032;-94
2022/11/03 09:30:40;;;;;;;6.25;1.10;;;;;;;19.48;nan;98956.53;4908336;29;20028;-94
2022/11/03 09:33:06;;;;;;;6.82;1.42;;;;;;;18.96;nan;98958.69;4902449;29;20024;-94
2022/11/03 09:35:31;;;;;;;5.15;1.67;;;;;;;19.27;nan;98946.78;4902623;29;20028;-93
2022/11/03 09:37:57;;;;;;;9.82;1.67;;;;;;;19.49;nan;98944.03;4905476;29;20034;-92
2022/11/03 09:40:24;;;;;;;3.22;1.13;;;;;;;19.30;nan;98942.94;4915453;29;20017;-93
2022/11/03 09:42:50;;;;;;;5.63;1.55;;;;;;;19.62;nan;98933.47;4911238;29;20055;-92
2022/11/03 09:45:15;;;;;;;5.95;1.10;;;;;;;19.94;nan;98928.47;4895374;29;20096;-93
2022/11/03 09:47:45;;;;;;;9.40;1.30;;;;;;;20.36;nan;98930.00;4906038;29;20035;-94
2022/11/03 09:50:16;;;;;;;4.20;1.30;;;;;;;20.66;nan;98937.63;4902684;29;20020;-94
2022/11/03 09:52:41;;;;;;;5.18;1.10;;;;;;;21.88;nan;98947.78;4900595;29;20681;-94
2022/11/03 09:55:16;;;;;;;6.13;1.48;;;;;;;23.11;nan;98949.22;4901724;29;20212;-95
2022/11/03 09:57:42;;;;;;;6.68;1.48;;;;;;;23.14;nan;98956.78;4901315;29;20043;-92
2022/11/03 10:00:19;;;;;;;7.55;1.20;;;;;;;23.17;nan;98953.69;4902571;29;20029;-94
2022/11/03 10:02:46;;;;;;;11.90;2.83;;;;;;;22.92;nan;98951.00;4900954;29;20028;-95
2022/11/03 10:05:21;;;;;;;8.38;1.70;;;;;;;22.91;nan;98952.88;4901397;29;20028;-95
2022/11/03 10:07:47;;;;;;;8.13;1.75;;;;;;;23.74;nan;98973.00;4900331;29;20027;-93
2022/11/03 10:10:20;;;;;;;8.07;1.15;;;;;;;24.38;nan;98980.63;4901759;29;20024;-93
2022/11/03 10:12:48;;;;;;;4.18;1.10;;;;;;;23.94;nan;98983.50;4900979;29;20027;-93
2022/11/03 10:15:18;;;;;;;5.50;1.15;;;;;;;23.64;nan;98975.41;4901283;29;20063;-94
2022/11/03 10:17:45;;;;;;;6.50;1.42;;;;;;;23.60;nan;98976.91;4900902;29;20028;-94
2022/11/03 10:20:13;;;;;;;11.90;1.92;;;;;;;24.03;nan;98988.56;4901199;29;20035;-94
2022/11/03 10:22:41;;;;;;;7.35;1.70;;;;;;;24.65;nan;98985.63;4899933;29;20043;-94
2022/11/03 10:25:38;;;;;;;9.88;1.33;;;;;;;25.36;nan;98994.56;4900843;29;20031;-95
2022/11/03 10:28:25;;;;;;;12.10;2.40;;;;;;;26.77;nan;98987.03;4900429;29;20177;-94
2022/11/03 10:31:18;;;;;;;7.88;1.70;;;;;;;26.91;nan;98972.19;4901003;29;20371;-93
2022/11/03 10:33:54;;;;;;;10.15;1.40;;;;;;;27.96;nan;98972.25;4897727;29;20455;-94
2022/11/03 10:36:28;;;;;;;8.15;1.33;;;;;;;28.55;nan;98973.38;4904214;29;20036;-93
2022/11/03 10:38:54;;;;;;;6.95;1.13;;;;;;;28.34;nan;98970.47;4897572;29;20391;-94
2022/11/03 10:41:29;;;;;;;5.53;1.33;;;;;;;28.94;nan;98971.25;4896974;29;20031;-94
2022/11/03 10:44:17;;;;;;;5.07;1.23;;;;;;;31.77;nan;98954.28;4904204;29;20028;-94
2022/11/03 10:46:59;;;;;;;6.15;1.20;;;;;;;32.59;nan;98955.69;4900602;29;20066;-94
2022/11/03 10:49:28;;;;;;;4.20;1.10;;;;;;;33.88;nan;98950.47;4917899;29;20059;-95
2022/11/03 10:52:05;;;;;;;9.10;1.85;;;;;;;34.10;nan;98943.63;4900625;29;20038;-95
2022/11/03 10:54:34;;;;;;;8.85;1.33;;;;;;;33.79;nan;98941.38;4902672;29;20099;-94
2022/11/03 10:57:00;;;;;;;3.20;0.93;;;;;;;34.41;nan;98946.72;4898541;29;20522;-94
2022/11/03 10:59:37;;;;;;;3.63;0.90;;;;;;;35.49;nan;98952.97;4917399;29;20024;-94
2022/11/03 11:02:14;;;;;;;4.25;0.95;;;;;;;37.10;nan;98953.25;4899701;29;20083;-94
2022/11/03 11:04:40;;;;;;;4.03;0.93;;;;;;;36.60;nan;98948.00;4900273;29;20406;-92
2022/11/03 11:07:28;;;;;;;4.32;0.90;;;;;;;34.75;nan;98965.50;4900542;29;20491;-95
2022/11/03 11:09:54;;;;;;;4.22;1.05;;;;;;;33.41;nan;98946.69;4899323;29;20051;-93
2022/11/03 11:12:23;;;;;;;3.45;1.05;;;;;;;32.58;nan;98957.63;4899264;29;20404;-94
2022/11/03 11:15:06;;;;;;;5.35;1.15;;;;;;;31.91;nan;98945.53;4900339;29;20036;-96
2022/11/03 11:17:44;;;;;;;3.13;1.00;;;;;;;32.77;nan;98937.88;4900730;29;20060;-96
2022/11/03 11:20:34;;;;;;;4.07;0.70;;;;;;;30.79;nan;98956.44;4900842;29;20028;-96
2022/11/03 11:23:28;;;;;;;3.72;0.80;;;;;;;31.17;nan;98961.56;4900757;29;20036;-96
2022/11/03 11:26:06;;;;;;;4.32;0.70;;;;;;;33.03;nan;98948.47;4901240;29;20036;-96
2022/11/03 11:29:31;;;;;;;3.47;0.73;;;;;;;35.94;nan;98943.00;4904369;29;20028;-96
2022/11/03 11:31:57;;;;;;;3.70;0.90;;;;;;;37.51;nan;98932.16;4916044;29;20127;-96
2022/11/03 11:34:35;;;;;;;2.22;0.77;;;;;;;37.65;nan;98943.78;4900836;29;20063;-96
2022/11/03 11:37:01;;;;;;;3.00;0.98;;;;;;;37.95;nan;98934.97;4900096;29;20035;-96
2022/11/03 11:39:26;;;;;;;4.68;1.00;;;;;;;37.03;nan;98933.75;4899909;29;20029;-96
2022/11/03 11:42:10;;;;;;;4.72;1.17;;;;;;;33.46;nan;98934.97;4900167;29;20054;-95
2022/11/03 11:44:42;;;;;;;3.42;0.98;;;;;;;35.17;nan;98934.78;4900481;29;20122;-96
2022/11/03 11:47:26;;;;;;;;;;;;;;;36.44;nan;98944.03;4900455;29;20051;-96
2022/11/03 11:50:08;;;;;;;3.60;0.90;;;;;;;36.43;nan;98939.69;4900628;29;20369;-96
2022/11/03 11:53:07;;;;;;;;;;;;;;;;;;;;;
2022/11/03 11:55:33;;;;;;;2.08;0.70;;;;;;;32.53;nan;98935.88;4918344;29;20428;-95
2022/11/03 11:58:00;;;;;;;2.70;0.60;;;;;;;30.57;nan;98936.94;4899008;29;20123;-95
2022/11/03 12:00:30;;;;;;;5.68;1.02;;;;;;;28.24;nan;98940.72;4898786;29;20040;-94
2022/11/03 12:02:58;;;;;;;5.50;1.38;;;;;;;26.39;nan;98940.91;4899402;29;20131;-95
2022/11/03 12:05:27;;;;;;;3.90;1.20;;;;;;;29.49;nan;98925.91;4899571;29;20040;-94
2022/11/03 12:07:54;;;;;;;10.20;0.82;;;;;;;28.92;nan;98930.19;4898442;29;20038;-94
2022/11/03 12:10:30;;;;;;;4.78;1.10;;;;;;;28.05;nan;98922.16;4899635;29;20024;-94
2022/11/03 12:12:58;;;;;;;3.58;0.90;;;;;;;26.61;nan;98929.44;4904581;29;20052;-93
2022/11/03 12:15:53;;;;;;;4.18;0.65;;;;;;;25.78;nan;98931.72;4900593;29;20028;-93
2022/11/03 12:18:35;;;;;;;4.45;0.70;;;;;;;25.03;nan;98926.13;4895234;29;20494;-93
2022/11/03 12:21:15;;;;;;;6.32;0.90;;;;;;;24.02;nan;98927.94;4898519;29;20043;-93
2022/11/03 12:23:43;;;;;;;2.40;0.40;;;;;;;23.20;nan;98934.47;4898825;29;20032;-94
2022/11/03 12:26:15;;;;;;;4.97;0.60;;;;;;;23.06;nan;98933.78;4899071;29;20028;-93
2022/11/03 12:28:41;;;;;;;;;;;;;;;23.24;nan;98940.19;4915903;29;20482;-93
2022/11/03 12:31:06;;;;;;;2.45;0.47;;;;;;;22.85;nan;98937.69;4898443;29;19926;-91
2022/11/03 12:33:32;;;;;;;6.25;0.63;;;;;;;22.51;nan;98937.16;4899132;29;20075;-93
2022/11/03 12:35:57;;;;;;;4.60;0.65;;;;;;;22.76;nan;98939.81;4901599;29;20031;-93
2022/11/03 12:38:23;;;;;;;3.47;0.85;;;;;;;22.35;nan;98940.34;4902786;29;20492;-93